Time;durP1;ratioP1;P1;durP2;ratioP2;P2;SDS_P1;SDS_P2;PMS_P1;PMS_P2;Temp;Humidity;BMP_temperature;BMP_pressure;BME280_temperature;BME280_humidity;BME280_pressure;Samples;Min_cycle;Max_cycle;Signal;HPM_P1;HPM_P2
2022/02/21 00:00:11;;;;;;;2.47;1.45;;;22.70;33.50;;;;;;5114518;27;20479;-72
2022/02/21 00:02:38;;;;;;;2.50;1.53;;;22.60;33.40;;;;;;5114585;28;20791;-72
2022/02/21 00:05:06;;;;;;;2.70;1.77;;;22.60;33.30;;;;;;5114586;28;20465;-72
2022/02/21 00:07:32;;;;;;;2.38;1.50;;;22.70;33.40;;;;;;5114513;28;20392;-74
2022/02/21 00:09:57;;;;;;;2.47;1.65;;;22.60;33.30;;;;;;5114146;28;20757;-72
2022/02/21 00:12:23;;;;;;;2.70;1.50;;;22.60;33.40;;;;;;5114415;28;20396;-74
2022/02/21 00:14:49;;;;;;;2.83;1.50;;;22.60;33.40;;;;;;5114379;28;20434;-71
2022/02/21 00:17:15;;;;;;;2.30;1.80;;;22.60;33.40;;;;;;5114307;28;20391;-74
2022/02/21 00:19:41;;;;;;;2.30;1.50;;;22.50;33.30;;;;;;5114189;28;20384;-72
2022/02/21 00:22:07;;;;;;;2.65;1.85;;;22.50;33.30;;;;;;5114256;28;20399;-73
2022/02/21 00:24:32;;;;;;;2.28;1.60;;;22.50;33.20;;;;;;5114139;28;20391;-71
2022/02/21 00:26:58;;;;;;;2.60;1.60;;;22.50;33.20;;;;;;5114202;28;20808;-73
2022/02/21 00:29:24;;;;;;;2.22;1.50;;;22.50;33.20;;;;;;5112772;28;20873;-73
2022/02/21 00:31:51;;;;;;;2.50;1.67;;;22.50;33.20;;;;;;5112430;28;20461;-72
2022/02/21 00:34:16;;;;;;;2.40;1.45;;;22.50;33.20;;;;;;5113953;28;20805;-74
2022/02/21 00:36:42;;;;;;;2.40;1.60;;;22.50;33.20;;;;;;5112833;28;20418;-73
2022/02/21 00:39:08;;;;;;;2.08;1.50;;;22.50;33.30;;;;;;5113787;28;20400;-71
2022/02/21 00:41:33;;;;;;;2.03;1.45;;;22.50;33.30;;;;;;5113956;28;20400;-72
2022/02/21 00:43:59;;;;;;;2.27;1.80;;;22.50;33.20;;;;;;5113491;28;20950;-73
2022/02/21 00:46:25;;;;;;;2.25;1.80;;;22.50;33.20;;;;;;5113629;28;20417;-72
2022/02/21 00:48:50;;;;;;;2.30;1.60;;;22.40;33.20;;;;;;5113871;28;20438;-72
2022/02/21 00:51:16;;;;;;;2.10;1.50;;;22.50;33.30;;;;;;5113661;28;20406;-74
2022/02/21 00:53:42;;;;;;;2.15;1.40;;;22.50;33.30;;;;;;5113531;28;20433;-72
2022/02/21 00:56:07;;;;;;;2.20;1.60;;;22.40;33.20;;;;;;5111992;28;20415;-72
2022/02/21 00:58:33;;;;;;;2.10;1.50;;;22.50;33.20;;;;;;5112313;28;20833;-72
2022/02/21 01:00:58;;;;;;;3.20;1.90;;;22.40;33.10;;;;;;5113392;28;20400;-72
2022/02/21 01:03:24;;;;;;;2.22;1.50;;;22.40;33.10;;;;;;5113445;28;20396;-72
2022/02/21 01:05:50;;;;;;;2.10;1.57;;;22.40;33.10;;;;;;5112938;28;20754;-73
2022/02/21 01:08:16;;;;;;;2.00;1.42;;;22.40;33.10;;;;;;5112104;28;20395;-72
2022/02/21 01:10:41;;;;;;;2.10;1.60;;;22.40;33.20;;;;;;5113346;28;20487;-73
2022/02/21 01:13:07;;;;;;;2.85;1.45;;;22.40;33.20;;;;;;5113290;28;20384;-72
2022/02/21 01:15:33;;;;;;;2.70;1.60;;;22.40;33.10;;;;;;5113186;28;20473;-73
2022/02/21 01:17:59;;;;;;;2.15;1.60;;;22.40;33.10;;;;;;5111518;28;20399;-73
2022/02/21 01:20:24;;;;;;;2.13;1.40;;;22.40;33.20;;;;;;5111876;28;20373;-72
2022/02/21 01:22:50;;;;;;;2.60;1.60;;;22.40;33.20;;;;;;5111883;28;20449;-72
2022/02/21 01:25:16;;;;;;;2.55;1.23;;;22.40;33.20;;;;;;5111758;28;20396;-73
2022/02/21 01:27:43;;;;;;;1.80;1.30;;;22.40;33.20;;;;;;5111379;28;20789;-72
2022/02/21 01:30:11;;;;;;;2.03;1.40;;;22.30;33.10;;;;;;5112702;28;20412;-72
2022/02/21 01:32:37;;;;;;;2.00;1.30;;;22.40;33.20;;;;;;5112919;28;20380;-72
2022/02/21 01:35:04;;;;;;;2.13;1.40;;;22.40;33.20;;;;;;5112894;27;20496;-73
2022/02/21 01:37:30;;;;;;;2.20;1.40;;;22.30;33.10;;;;;;5112428;27;20416;-73
2022/02/21 01:39:56;;;;;;;2.27;1.60;;;22.30;33.10;;;;;;5112411;28;20424;-71
2022/02/21 01:42:22;;;;;;;2.30;1.30;;;22.30;33.70;;;;;;5111339;28;20403;-73
2022/02/21 01:44:49;;;;;;;3.20;1.50;;;22.30;33.00;;;;;;5112486;28;20923;-72
2022/02/21 01:47:18;;;;;;;2.15;1.27;;;22.30;33.00;;;;;;5111386;28;20425;-73
2022/02/21 01:49:44;;;;;;;1.60;1.00;;;22.30;33.00;;;;;;5112531;28;20388;-71
2022/02/21 01:52:11;;;;;;;2.22;1.33;;;22.30;33.00;;;;;;5111028;28;20391;-71
2022/02/21 01:54:37;;;;;;;1.90;1.40;;;22.30;33.00;;;;;;5112413;28;20927;-72
2022/02/21 01:57:04;;;;;;;2.00;1.20;;;22.30;33.00;;;;;;5111289;28;20911;-72
2022/02/21 01:59:32;;;;;;;2.05;1.38;;;22.40;33.00;;;;;;5112080;28;20390;-72
2022/02/21 02:01:58;;;;;;;2.00;1.50;;;22.30;33.00;;;;;;5111938;28;20389;-71
2022/02/21 02:04:27;;;;;;;2.13;1.30;;;22.70;33.20;;;;;;5110295;28;20784;-71
2022/02/21 02:06:53;;;;;;;1.88;1.33;;;22.30;32.90;;;;;;5111110;28;20384;-72
2022/02/21 02:09:19;;;;;;;2.53;1.33;;;22.30;33.00;;;;;;5112376;28;20373;-72
2022/02/21 02:11:45;;;;;;;2.22;1.38;;;22.30;33.00;;;;;;5112305;28;20463;-72
2022/02/21 02:14:28;;;;;;;1.70;1.30;;;22.30;33.00;;;;;;5111869;28;20416;-72
2022/02/21 02:16:54;;;;;;;2.30;1.30;;;22.30;33.00;;;;;;5112309;28;20384;-72
2022/02/21 02:19:20;;;;;;;1.90;1.27;;;22.20;32.90;;;;;;5112036;27;20406;-72
2022/02/21 02:21:52;;;;;;;1.73;1.30;;;22.20;32.90;;;;;;5110662;28;20719;-72
2022/02/21 02:24:18;;;;;;;1.63;1.20;;;22.20;32.90;;;;;;5111749;28;20887;-72
2022/02/21 02:26:43;;;;;;;1.50;1.20;;;22.20;32.90;;;;;;5110856;28;20396;-71
2022/02/21 02:29:09;;;;;;;2.00;1.30;;;22.20;32.90;;;;;;5111996;28;20380;-72
2022/02/21 02:31:35;;;;;;;1.67;1.20;;;22.20;32.90;;;;;;5111897;28;20873;-71
2022/02/21 02:34:00;;;;;;;1.87;1.10;;;22.20;32.90;;;;;;5111336;28;20472;-72
2022/02/21 02:36:27;;;;;;;1.70;1.23;;;22.20;33.50;;;;;;5111674;28;20897;-72
2022/02/21 02:38:53;;;;;;;1.70;1.30;;;22.20;32.90;;;;;;5111850;28;20397;-73
2022/02/21 02:41:19;;;;;;;1.60;1.20;;;22.20;32.90;;;;;;5111873;28;20432;-72
2022/02/21 02:43:45;;;;;;;1.80;1.25;;;22.20;32.90;;;;;;5110346;28;20437;-72
2022/02/21 02:46:10;;;;;;;1.97;1.30;;;22.20;32.90;;;;;;5111405;28;20404;-72
2022/02/21 02:48:36;;;;;;;1.67;1.10;;;22.20;32.90;;;;;;5111914;28;20429;-72
2022/02/21 02:51:02;;;;;;;2.00;1.30;;;22.20;32.90;;;;;;5110498;28;20397;-71
2022/02/21 02:53:29;;;;;;;2.30;1.40;;;22.20;33.00;;;;;;5110457;28;20380;-72
2022/02/21 02:55:55;;;;;;;1.55;1.17;;;22.20;32.80;;;;;;5111109;28;20408;-74
2022/02/21 02:58:21;;;;;;;1.95;1.20;;;22.10;32.80;;;;;;5111364;28;20903;-71
2022/02/21 03:00:47;;;;;;;1.90;1.42;;;22.20;32.80;;;;;;5111671;28;20392;-72
2022/02/21 03:03:13;;;;;;;2.00;1.33;;;22.20;32.80;;;;;;5110333;28;20385;-71
2022/02/21 03:05:39;;;;;;;1.90;1.25;;;22.10;32.80;;;;;;5110363;28;20387;-72
2022/02/21 03:08:05;;;;;;;2.20;1.30;;;22.10;32.80;;;;;;5109816;28;20392;-71
2022/02/21 03:10:30;;;;;;;2.33;1.10;;;22.10;32.80;;;;;;5110174;28;20437;-72
2022/02/21 03:12:56;;;;;;;1.95;1.30;;;22.10;32.80;;;;;;5110061;28;20388;-74
2022/02/21 03:15:22;;;;;;;1.80;1.23;;;22.10;32.80;;;;;;5111247;28;20416;-72
2022/02/21 03:17:47;;;;;;;1.63;1.10;;;22.10;32.80;;;;;;5113449;28;20391;-72
2022/02/21 03:20:13;;;;;;;2.30;1.30;;;22.10;32.80;;;;;;5113942;28;20395;-73
2022/02/21 03:22:39;;;;;;;1.83;1.30;;;22.10;32.80;;;;;;5114318;28;20888;-73
2022/02/21 03:25:05;;;;;;;2.10;1.40;;;22.10;32.70;;;;;;5115448;28;20384;-71
2022/02/21 03:27:31;;;;;;;1.50;1.10;;;22.10;32.80;;;;;;5114083;28;20395;-72
2022/02/21 03:29:56;;;;;;;2.40;1.15;;;22.10;32.80;;;;;;5114964;28;20380;-72
2022/02/21 03:32:22;;;;;;;1.80;1.20;;;22.10;32.80;;;;;;5114013;28;20396;-72
2022/02/21 03:34:48;;;;;;;1.65;1.20;;;22.10;32.80;;;;;;5115190;28;20885;-71
2022/02/21 03:37:14;;;;;;;1.58;1.17;;;22.10;32.80;;;;;;5115191;28;20388;-71
2022/02/21 03:39:40;;;;;;;1.70;1.00;;;22.10;32.80;;;;;;5115046;28;20376;-72
2022/02/21 03:42:05;;;;;;;1.92;1.30;;;22.10;32.80;;;;;;5113433;28;20411;-71
2022/02/21 03:44:31;;;;;;;1.60;1.20;;;22.10;32.70;;;;;;5113485;28;20870;-72
2022/02/21 03:46:57;;;;;;;1.70;1.10;;;22.10;32.70;;;;;;5115048;28;20392;-71
2022/02/21 03:49:22;;;;;;;1.50;1.00;;;22.10;32.70;;;;;;5114887;28;20445;-71
2022/02/21 03:51:48;;;;;;;1.90;1.30;;;22.10;32.70;;;;;;5114722;28;20381;-71
2022/02/21 03:54:14;;;;;;;1.50;1.13;;;22.10;32.70;;;;;;5113236;28;20384;-72
2022/02/21 03:56:39;;;;;;;2.15;1.17;;;22.10;32.70;;;;;;5113551;28;20428;-72
2022/02/21 03:59:05;;;;;;;2.03;1.10;;;22.10;32.70;;;;;;5113535;28;20388;-72
2022/02/21 04:01:31;;;;;;;1.67;1.10;;;22.10;32.70;;;;;;5113362;28;20396;-71
2022/02/21 04:03:57;;;;;;;1.60;1.10;;;22.00;32.70;;;;;;5113168;28;20400;-71
2022/02/21 04:06:22;;;;;;;1.70;1.30;;;22.10;32.60;;;;;;5114622;28;20388;-72
2022/02/21 04:08:48;;;;;;;2.13;1.00;;;22.10;32.50;;;;;;5114509;28;20873;-72
2022/02/21 04:11:14;;;;;;;1.57;1.07;;;22.20;32.80;;;;;;5113174;28;20385;-71
2022/02/21 04:13:40;;;;;;;2.88;1.17;;;22.20;32.90;;;;;;5113156;28;20741;-72
2022/02/21 04:16:06;;;;;;;6.13;1.27;;;22.30;33.40;;;;;;5113712;28;20919;-70
2022/02/21 04:18:31;;;;;;;7.18;1.17;;;22.30;34.10;;;;;;5113289;28;20421;-72
2022/02/21 04:20:57;;;;;;;8.43;1.80;;;22.30;35.20;;;;;;5114184;28;20783;-71
2022/02/21 04:23:23;;;;;;;5.97;1.20;;;22.30;35.80;;;;;;5114712;28;20749;-71
2022/02/21 04:25:48;;;;;;;14.60;1.40;;;22.40;36.10;;;;;;5113777;27;20392;-71
2022/02/21 04:28:17;;;;;;;6.77;1.30;;;22.40;35.60;;;;;;5113993;28;20384;-71
2022/02/21 04:30:43;;;;;;;8.32;1.63;;;22.40;35.50;;;;;;5113913;28;20722;-71
2022/02/21 04:33:09;;;;;;;7.03;1.30;;;22.40;35.60;;;;;;5113972;28;20377;-71
2022/02/21 04:35:35;;;;;;;8.82;1.42;;;22.40;35.60;;;;;;5114032;28;20415;-70
2022/02/21 04:38:01;;;;;;;9.80;1.30;;;22.50;35.60;;;;;;5113675;28;20372;-73
2022/02/21 04:40:27;;;;;;;10.60;1.30;;;22.60;36.00;;;;;;5112641;28;20486;-72
2022/02/21 04:42:54;;;;;;;8.80;1.50;;;22.60;36.00;;;;;;5114985;28;20381;-74
2022/02/21 04:45:20;;;;;;;5.78;1.20;;;22.60;35.70;;;;;;5116564;28;20408;-70
2022/02/21 04:47:47;;;;;;;5.60;1.00;;;22.60;35.50;;;;;;5116522;28;20384;-71
2022/02/21 04:50:13;;;;;;;6.22;1.23;;;22.60;35.30;;;;;;5114165;28;20396;-71
2022/02/21 04:52:40;;;;;;;8.45;1.30;;;22.60;35.50;;;;;;5114291;28;20403;-70
2022/02/21 04:55:07;;;;;;;7.90;1.13;;;22.50;34.60;;;;;;5113652;28;20889;-72
2022/02/21 04:57:33;;;;;;;5.57;1.10;;;22.50;34.40;;;;;;5112253;28;20739;-71
2022/02/21 04:59:59;;;;;;;3.88;1.20;;;22.40;34.30;;;;;;5111799;28;20388;-71
2022/02/21 05:02:25;;;;;;;5.45;1.08;;;22.40;34.70;;;;;;5113510;28;20730;-71
2022/02/21 05:04:52;;;;;;;4.33;1.10;;;22.40;34.50;;;;;;5113411;28;20416;-71
2022/02/21 05:07:17;;;;;;;3.42;1.30;;;22.40;34.30;;;;;;5113474;28;20877;-71
2022/02/21 05:09:43;;;;;;;2.40;1.00;;;22.40;33.80;;;;;;5113386;28;20442;-71
2022/02/21 05:12:09;;;;;;;2.90;0.90;;;22.40;33.50;;;;;;5112890;28;20389;-71
2022/02/21 05:14:35;;;;;;;3.05;1.10;;;22.40;33.60;;;;;;5113240;28;20400;-71
2022/02/21 05:17:00;;;;;;;3.63;1.07;;;22.30;33.30;;;;;;5113353;28;20392;-71
2022/02/21 05:19:26;;;;;;;2.97;1.20;;;22.30;33.50;;;;;;5113219;28;20385;-71
2022/02/21 05:21:53;;;;;;;4.00;1.00;;;22.40;33.20;;;;;;5113213;28;20423;-69
2022/02/21 05:24:19;;;;;;;2.35;0.80;;;22.30;33.50;;;;;;5112873;27;20377;-69
2022/02/21 05:26:44;;;;;;;2.92;0.93;;;22.30;33.70;;;;;;5113064;28;20414;-69
2022/02/21 05:29:10;;;;;;;7.80;1.10;;;22.30;34.30;;;;;;5111653;28;20948;-69
2022/02/21 05:31:35;;;;;;;6.00;1.00;;;22.30;34.10;;;;;;5108363;28;20397;-68
2022/02/21 05:34:01;;;;;;;3.83;1.10;;;22.30;34.10;;;;;;5112231;28;20433;-69
2022/02/21 05:36:27;;;;;;;3.73;1.10;;;22.30;34.20;;;;;;5112547;28;20874;-69
2022/02/21 05:38:52;;;;;;;4.20;1.20;;;22.30;33.80;;;;;;5112572;28;20380;-70
2022/02/21 05:41:18;;;;;;;3.20;1.10;;;22.30;33.50;;;;;;5110469;28;20446;-69
2022/02/21 05:43:44;;;;;;;3.45;0.90;;;22.40;34.30;;;;;;5112574;28;20392;-70
2022/02/21 05:46:09;;;;;;;3.97;1.00;;;22.30;33.80;;;;;;5111929;28;20529;-69
2022/02/21 05:48:35;;;;;;;1.83;0.93;;;22.30;34.10;;;;;;5112729;28;20373;-69
2022/02/21 05:51:01;;;;;;;3.22;0.93;;;22.30;34.30;;;;;;5112585;28;20941;-70
2022/02/21 05:53:26;;;;;;;2.87;0.90;;;22.30;34.10;;;;;;5111303;28;20377;-70
2022/02/21 05:55:52;;;;;;;3.50;1.10;;;22.30;33.80;;;;;;5110884;28;21056;-69
2022/02/21 05:58:17;;;;;;;3.47;1.00;;;22.30;33.40;;;;;;5110688;28;20399;-72
2022/02/21 06:00:45;;;;;;;3.05;0.90;;;22.30;33.50;;;;;;5110928;28;20380;-72
2022/02/21 06:03:11;;;;;;;4.72;0.93;;;22.30;33.50;;;;;;5112357;28;20415;-71
2022/02/21 06:05:36;;;;;;;5.63;1.10;;;22.30;33.70;;;;;;5112309;28;20877;-72
2022/02/21 06:08:02;;;;;;;5.07;1.20;;;22.30;33.70;;;;;;5111789;28;20383;-73
2022/02/21 06:10:28;;;;;;;4.57;1.00;;;22.20;33.80;;;;;;5112256;28;20897;-72
2022/02/21 06:12:54;;;;;;;3.83;1.00;;;22.30;33.70;;;;;;5112126;28;20453;-72
2022/02/21 06:15:19;;;;;;;5.65;0.90;;;22.20;33.50;;;;;;5111890;27;20436;-72
2022/02/21 06:17:45;;;;;;;4.83;1.20;;;22.20;33.70;;;;;;5110678;28;20380;-71
2022/02/21 06:20:11;;;;;;;6.40;1.30;;;22.10;33.70;;;;;;5111452;28;20392;-73
2022/02/21 06:22:36;;;;;;;5.17;1.23;;;22.10;33.80;;;;;;5110797;28;20392;-72
2022/02/21 06:25:02;;;;;;;5.55;1.00;;;22.10;33.80;;;;;;5111879;28;20438;-71
2022/02/21 06:27:29;;;;;;;5.78;0.90;;;22.10;33.80;;;;;;5111929;28;20423;-72
2022/02/21 06:29:55;;;;;;;4.40;0.80;;;22.00;33.80;;;;;;5111851;28;20454;-71
2022/02/21 06:32:20;;;;;;;5.55;1.00;;;22.00;33.70;;;;;;5111634;28;20392;-71
2022/02/21 06:34:48;;;;;;;4.30;1.00;;;22.00;33.70;;;;;;5111961;28;20412;-72
2022/02/21 06:37:14;;;;;;;3.88;0.80;;;22.00;33.50;;;;;;5111857;28;20402;-72
2022/02/21 06:39:40;;;;;;;4.03;1.13;;;22.00;33.40;;;;;;5111834;28;20711;-72
2022/02/21 06:42:06;;;;;;;3.27;1.00;;;22.00;33.50;;;;;;5111486;28;20470;-72
2022/02/21 06:44:32;;;;;;;3.35;0.90;;;22.00;33.30;;;;;;5111322;28;20407;-72
2022/02/21 06:46:57;;;;;;;2.30;0.90;;;22.00;33.30;;;;;;5111782;28;20414;-72
2022/02/21 06:49:23;;;;;;;3.08;0.90;;;22.00;33.30;;;;;;5111724;28;20376;-72
2022/02/21 06:51:48;;;;;;;2.77;0.90;;;22.00;33.30;;;;;;5113003;28;20746;-72
2022/02/21 06:54:14;;;;;;;1.90;0.80;;;21.90;33.30;;;;;;5115572;28;20497;-72
2022/02/21 06:56:40;;;;;;;1.65;0.88;;;22.00;33.30;;;;;;5114501;28;20418;-71
2022/02/21 06:59:05;;;;;;;2.55;0.80;;;21.90;33.30;;;;;;5115939;28;20385;-72
2022/02/21 07:01:31;;;;;;;2.20;0.85;;;21.90;33.30;;;;;;5115846;28;20393;-72
2022/02/21 07:03:57;;;;;;;2.40;0.80;;;21.90;33.40;;;;;;5115490;28;20829;-73
2022/02/21 07:06:23;;;;;;;2.00;0.80;;;21.90;34.00;;;;;;5115716;28;20384;-71
2022/02/21 07:08:49;;;;;;;1.63;0.88;;;21.90;33.40;;;;;;5115867;28;20771;-72
2022/02/21 07:11:15;;;;;;;3.10;0.80;;;21.90;33.50;;;;;;5115705;28;20392;-71
2022/02/21 07:13:40;;;;;;;2.15;0.88;;;21.90;33.40;;;;;;5115672;28;20380;-72
2022/02/21 07:16:06;;;;;;;1.98;0.90;;;21.90;33.40;;;;;;5115097;28;20408;-72
2022/02/21 07:18:37;;;;;;;2.28;0.63;;;21.90;33.40;;;;;;5115233;28;20376;-72
2022/02/21 07:21:03;;;;;;;2.35;0.90;;;21.90;33.40;;;;;;5115535;28;20388;-71
2022/02/21 07:23:30;;;;;;;2.33;1.02;;;21.90;33.30;;;;;;5114401;28;20369;-72
2022/02/21 07:25:56;;;;;;;2.28;1.00;;;21.90;33.20;;;;;;5114894;28;20388;-73
2022/02/21 07:28:22;;;;;;;2.33;1.17;;;21.90;33.00;;;;;;5114638;28;20757;-72
2022/02/21 07:30:48;;;;;;;3.85;1.58;;;21.90;33.00;;;;;;5114969;28;20444;-73
2022/02/21 07:33:14;;;;;;;3.35;1.45;;;21.90;32.90;;;;;;5113516;28;20500;-71
2022/02/21 07:35:41;;;;;;;3.30;1.70;;;21.90;33.00;;;;;;5113471;28;20423;-72
2022/02/21 07:38:07;;;;;;;2.88;1.40;;;21.90;33.00;;;;;;5114369;28;20461;-70
2022/02/21 07:40:32;;;;;;;3.70;1.40;;;21.90;32.90;;;;;;5114750;28;20558;-71
2022/02/21 07:42:58;;;;;;;3.60;1.65;;;21.90;32.90;;;;;;5114762;28;20384;-70
2022/02/21 07:45:25;;;;;;;3.30;1.60;;;21.90;32.90;;;;;;5121450;27;20815;-71
2022/02/21 07:47:56;;;;;;;3.25;1.60;;;21.90;32.90;;;;;;5114109;28;20757;-72
2022/02/21 07:50:23;;;;;;;2.97;1.52;;;21.90;32.90;;;;;;5114607;28;20412;-70
2022/02/21 07:52:49;;;;;;;3.03;1.50;;;21.80;32.80;;;;;;5114940;28;20408;-71
2022/02/21 07:55:16;;;;;;;4.18;2.20;;;21.90;32.90;;;;;;5113496;28;20468;-71
2022/02/21 07:57:43;;;;;;;3.00;1.67;;;21.90;32.80;;;;;;5114807;28;20372;-71
2022/02/21 08:00:11;;;;;;;2.37;1.40;;;21.90;32.80;;;;;;5114415;28;20384;-72
2022/02/21 08:02:38;;;;;;;2.70;1.65;;;21.80;32.80;;;;;;5113910;28;20929;-71
2022/02/21 08:05:05;;;;;;;2.70;1.50;;;21.80;32.90;;;;;;5113472;28;20465;-71
2022/02/21 08:07:31;;;;;;;3.53;1.80;;;21.80;33.00;;;;;;5113216;28;20408;-71
2022/02/21 08:09:57;;;;;;;3.20;1.52;;;21.80;32.90;;;;;;5113337;28;20940;-71
2022/02/21 08:12:23;;;;;;;2.67;1.70;;;21.80;32.80;;;;;;5114102;28;20938;-73
2022/02/21 08:14:48;;;;;;;2.80;1.70;;;21.80;32.70;;;;;;5114452;28;20487;-72
2022/02/21 08:17:14;;;;;;;2.67;1.45;;;21.80;32.80;;;;;;5114384;28;20471;-73
2022/02/21 08:19:40;;;;;;;2.97;1.50;;;21.80;32.80;;;;;;5113313;28;20412;-71
2022/02/21 08:22:06;;;;;;;2.28;1.25;;;21.80;32.70;;;;;;5113986;28;20388;-70
2022/02/21 08:24:31;;;;;;;2.95;1.38;;;21.80;32.60;;;;;;5113034;28;20376;-71
2022/02/21 08:26:57;;;;;;;2.97;1.40;;;21.80;32.60;;;;;;5112775;28;20711;-71
2022/02/21 08:29:23;;;;;;;2.10;1.33;;;21.80;32.70;;;;;;5112862;28;20395;-71
2022/02/21 08:31:48;;;;;;;2.42;1.30;;;21.80;32.60;;;;;;5114076;28;20380;-71
2022/02/21 08:34:19;;;;;;;2.93;1.27;;;21.80;32.60;;;;;;5112331;28;20381;-71
2022/02/21 08:36:44;;;;;;;2.28;1.20;;;21.80;32.50;;;;;;5112904;28;20466;-72
2022/02/21 08:39:10;;;;;;;1.92;1.10;;;21.80;32.90;;;;;;5113629;28;20380;-71
2022/02/21 08:41:36;;;;;;;1.80;1.20;;;21.80;32.50;;;;;;5112646;28;20385;-72
2022/02/21 08:44:02;;;;;;;2.50;1.20;;;21.90;32.50;;;;;;5113551;28;20405;-71
2022/02/21 08:46:28;;;;;;;2.65;1.15;;;21.80;32.50;;;;;;5111953;28;20416;-72
2022/02/21 08:48:54;;;;;;;2.22;1.20;;;21.80;32.30;;;;;;5112516;28;20430;-72
2022/02/21 08:51:21;;;;;;;1.63;1.10;;;21.80;32.30;;;;;;5112513;28;20396;-71
2022/02/21 08:53:47;;;;;;;1.98;1.02;;;21.80;32.30;;;;;;5112463;28;20381;-71
2022/02/21 08:56:12;;;;;;;2.03;1.10;;;21.70;32.30;;;;;;5113142;28;20408;-71
2022/02/21 08:58:38;;;;;;;2.20;1.10;;;21.70;32.50;;;;;;5112313;28;20485;-73
2022/02/21 09:01:04;;;;;;;1.98;1.20;;;21.70;32.30;;;;;;5112017;28;20966;-71
2022/02/21 09:03:30;;;;;;;1.73;1.10;;;21.80;32.50;;;;;;5112212;28;20396;-71
2022/02/21 09:05:55;;;;;;;2.30;1.00;;;21.80;32.30;;;;;;5113511;28;20388;-70
2022/02/21 09:08:22;;;;;;;1.50;0.90;;;21.80;32.20;;;;;;5111437;28;20400;-70
2022/02/21 09:10:48;;;;;;;1.55;0.95;;;21.80;32.10;;;;;;5112121;28;20908;-71
2022/02/21 09:13:14;;;;;;;1.60;0.90;;;21.70;32.00;;;;;;5112047;28;20391;-71
2022/02/21 09:15:39;;;;;;;1.50;0.80;;;21.70;32.00;;;;;;5111969;28;20404;-71
2022/02/21 09:18:06;;;;;;;1.73;0.82;;;21.80;32.10;;;;;;5111126;28;20468;-71
2022/02/21 09:20:32;;;;;;;1.50;0.80;;;21.70;31.90;;;;;;5111489;28;20422;-71
2022/02/21 09:22:59;;;;;;;2.13;0.87;;;21.70;32.00;;;;;;5112588;28;20453;-71
2022/02/21 09:25:24;;;;;;;1.60;0.90;;;21.70;31.90;;;;;;5111729;28;20535;-72
2022/02/21 09:27:53;;;;;;;1.52;0.90;;;21.70;31.90;;;;;;5111714;28;20483;-71
2022/02/21 09:30:20;;;;;;;1.55;0.80;;;21.70;32.20;;;;;;5111354;28;20397;-71
2022/02/21 09:32:46;;;;;;;1.33;0.80;;;21.80;32.10;;;;;;5111758;28;20385;-71
2022/02/21 09:35:12;;;;;;;1.87;1.00;;;21.70;31.90;;;;;;5112695;28;20479;-72
2022/02/21 09:37:40;;;;;;;1.35;0.80;;;21.70;32.00;;;;;;5111361;28;20392;-70
2022/02/21 09:40:08;;;;;;;2.15;1.00;;;21.70;31.80;;;;;;5111330;28;20398;-71
2022/02/21 09:42:36;;;;;;;1.27;0.70;;;21.70;32.10;;;;;;5111388;28;20393;-72
2022/02/21 09:45:02;;;;;;;1.58;0.65;;;21.70;32.00;;;;;;5110844;28;20770;-72
2022/02/21 09:47:28;;;;;;;1.10;0.75;;;21.70;32.00;;;;;;5111128;28;20393;-71
2022/02/21 09:49:55;;;;;;;1.13;0.70;;;21.70;31.90;;;;;;5112803;28;20460;-72
2022/02/21 09:52:21;;;;;;;1.30;0.65;;;21.60;31.70;;;;;;5112159;28;20388;-72
2022/02/21 09:54:46;;;;;;;1.23;0.60;;;21.60;31.80;;;;;;5112552;28;20775;-71
2022/02/21 09:57:14;;;;;;;1.20;0.70;;;21.60;31.90;;;;;;5112508;28;20960;-70
2022/02/21 09:59:40;;;;;;;1.10;0.63;;;21.50;31.80;;;;;;5112536;28;20380;-71
2022/02/21 10:02:15;;;;;;;1.50;0.68;;;21.50;31.80;;;;;;5112358;27;20479;-71
2022/02/21 10:04:40;;;;;;;1.48;0.68;;;21.50;31.80;;;;;;5111182;28;20812;-72
2022/02/21 10:07:06;;;;;;;1.17;0.60;;;21.50;31.90;;;;;;5111032;28;20483;-70
2022/02/21 10:09:36;;;;;;;1.10;0.70;;;21.50;31.90;;;;;;5112350;28;20385;-70
2022/02/21 10:12:03;;;;;;;1.00;0.70;;;21.50;32.00;;;;;;5112446;28;20391;-71
2022/02/21 10:14:30;;;;;;;0.93;0.68;;;21.50;32.00;;;;;;5111707;28;20443;-72
2022/02/21 10:17:00;;;;;;;1.07;0.60;;;21.50;32.00;;;;;;5112276;28;20487;-71
2022/02/21 10:19:38;;;;;;;1.08;0.60;;;21.50;32.00;;;;;;5112208;28;20479;-72
2022/02/21 10:22:12;;;;;;;1.00;0.50;;;21.50;32.00;;;;;;5112292;28;20418;-71
2022/02/21 10:24:50;;;;;;;1.10;0.63;;;21.50;31.90;;;;;;5112101;28;20388;-71
2022/02/21 10:27:18;;;;;;;0.98;0.60;;;21.50;31.80;;;;;;5111567;28;20885;-71
2022/02/21 10:29:51;;;;;;;1.15;0.60;;;21.50;31.80;;;;;;5110817;28;20418;-72
2022/02/21 10:32:26;;;;;;;1.20;0.70;;;21.50;31.90;;;;;;5109957;28;20719;-72
2022/02/21 10:34:53;;;;;;;1.03;0.60;;;21.50;31.80;;;;;;5111384;28;20411;-71
2022/02/21 10:37:24;;;;;;;0.97;0.47;;;21.50;31.80;;;;;;5109702;28;20499;-72
2022/02/21 10:40:06;;;;;;;0.90;0.57;;;21.50;31.80;;;;;;5110986;28;20427;-71
2022/02/21 10:42:33;;;;;;;1.02;0.50;;;21.50;31.90;;;;;;5109584;28;20463;-72
2022/02/21 10:45:17;;;;;;;1.27;0.60;;;21.50;32.00;;;;;;5110841;28;20423;-70
2022/02/21 10:48:03;;;;;;;1.10;0.60;;;21.50;32.00;;;;;;5109189;28;20488;-70
2022/02/21 10:50:30;;;;;;;0.93;0.52;;;21.50;32.00;;;;;;5110867;28;20395;-69
2022/02/21 10:52:56;;;;;;;0.70;0.55;;;21.50;32.10;;;;;;5111804;28;20380;-70
2022/02/21 10:55:35;;;;;;;1.27;0.50;;;21.50;32.10;;;;;;5111099;28;20409;-71
2022/02/21 10:58:17;;;;;;;1.10;0.57;;;21.50;32.00;;;;;;5111102;28;20395;-72
2022/02/21 11:00:44;;;;;;;0.90;0.40;;;21.50;32.10;;;;;;5111297;28;20380;-70
2022/02/21 11:03:10;;;;;;;0.98;0.50;;;21.50;32.10;;;;;;5111164;28;20388;-71
2022/02/21 11:05:38;;;;;;;0.90;0.52;;;21.50;32.10;;;;;;5111255;28;20380;-71
2022/02/21 11:08:06;;;;;;;1.80;0.70;;;21.50;32.10;;;;;;5111897;28;20869;-71
2022/02/21 11:10:34;;;;;;;0.60;0.35;;;21.50;32.10;;;;;;5111191;28;20388;-72
2022/02/21 11:13:01;;;;;;;1.27;0.40;;;21.50;32.10;;;;;;5111678;28;20471;-71
2022/02/21 11:15:28;;;;;;;0.82;0.47;;;21.50;32.00;;;;;;5111537;28;20791;-70
2022/02/21 11:17:54;;;;;;;1.08;0.60;;;21.50;32.00;;;;;;5111084;28;20401;-72
2022/02/21 11:20:20;;;;;;;1.45;0.50;;;21.50;31.90;;;;;;5110999;28;20453;-70
2022/02/21 11:22:46;;;;;;;1.90;0.50;;;21.60;31.80;;;;;;5111415;28;20380;-71
2022/02/21 11:25:28;;;;;;;2.30;0.60;;;21.80;32.50;;;;;;5111537;28;20396;-71
2022/02/21 11:28:01;;;;;;;2.40;0.50;;;21.90;32.30;;;;;;5111153;28;20377;-70
2022/02/21 11:30:29;;;;;;;2.05;0.50;;;21.90;32.10;;;;;;5110230;28;20392;-71
2022/02/21 11:33:18;;;;;;;1.23;0.47;;;21.90;32.20;;;;;;5111092;28;20482;-70
2022/02/21 11:36:09;;;;;;;1.60;0.40;;;21.80;32.00;;;;;;5111069;28;20477;-71
2022/02/21 11:38:40;;;;;;;1.92;0.70;;;21.80;32.00;;;;;;5112892;28;20384;-71
2022/02/21 11:41:13;;;;;;;2.22;0.50;;;21.70;32.00;;;;;;5114861;28;20451;-71
2022/02/21 11:43:39;;;;;;;0.90;0.50;;;21.70;32.10;;;;;;5115201;28;20873;-70
2022/02/21 11:46:21;;;;;;;1.70;0.40;;;21.70;32.10;;;;;;5113433;28;20443;-70
2022/02/21 11:48:59;;;;;;;0.80;0.40;;;21.70;32.10;;;;;;5114925;28;20467;-70
2022/02/21 11:51:44;;;;;;;1.10;0.32;;;21.70;32.20;;;;;;5113463;28;20819;-71
2022/02/21 11:54:13;;;;;;;1.25;0.40;;;21.70;32.30;;;;;;5112897;28;20912;-71
2022/02/21 11:56:47;;;;;;;1.20;0.50;;;21.70;32.20;;;;;;5112593;28;20443;-71
2022/02/21 11:59:22;;;;;;;1.33;0.50;;;21.70;32.20;;;;;;5114480;28;20384;-71
2022/02/21 12:02:12;;;;;;;1.10;0.63;;;21.70;32.10;;;;;;5112321;28;20877;-71
2022/02/21 12:04:58;;;;;;;1.00;0.47;;;21.80;32.20;;;;;;5113270;28;20392;-71
2022/02/21 12:07:28;;;;;;;1.35;0.75;;;21.90;32.00;;;;;;5111602;28;20399;-71
2022/02/21 12:10:24;;;;;;;0.90;0.50;;;21.90;31.90;;;;;;5113335;28;20393;-71
2022/02/21 12:13:11;;;;;;;1.38;0.65;;;21.80;31.90;;;;;;5106666;28;20916;-71
2022/02/21 12:15:37;;;;;;;1.05;0.50;;;21.80;31.90;;;;;;5114549;28;20427;-71
2022/02/21 12:18:09;;;;;;;0.70;0.50;;;21.80;31.80;;;;;;5113178;28;20395;-71
2022/02/21 12:20:38;;;;;;;1.40;0.70;;;21.70;31.80;;;;;;5114062;28;20392;-71
2022/02/21 12:23:13;;;;;;;0.87;0.50;;;21.70;31.90;;;;;;5114427;28;20468;-72
2022/02/21 12:25:41;;;;;;;0.98;0.40;;;21.70;31.80;;;;;;5113164;28;20388;-71
2022/02/21 12:28:23;;;;;;;0.80;0.50;;;21.70;31.90;;;;;;5114360;28;20384;-71
2022/02/21 12:30:50;;;;;;;1.33;0.52;;;21.70;31.90;;;;;;5104372;28;21090;-72
2022/02/21 12:33:23;;;;;;;0.70;0.50;;;21.70;31.90;;;;;;5110567;28;20395;-72
2022/02/21 12:35:57;;;;;;;0.70;0.43;;;21.70;31.90;;;;;;5112436;28;20978;-71
2022/02/21 12:38:26;;;;;;;0.70;0.40;;;21.70;31.90;;;;;;5110187;28;20467;-71
2022/02/21 12:41:02;;;;;;;1.20;0.50;;;21.70;32.00;;;;;;5112619;28;20405;-71
2022/02/21 12:44:02;;;;;;;0.93;0.50;;;21.70;32.00;;;;;;5112506;28;20392;-70
2022/02/21 12:46:39;;;;;;;0.90;0.50;;;21.70;32.00;;;;;;5111022;28;20881;-71
2022/02/21 12:49:14;;;;;;;1.40;0.60;;;21.70;32.00;;;;;;5110908;28;20434;-71